sensor_id;sensor_type;location;lat;lon;timestamp;pressure;altitude;pressure_sealevel;temperature;humidity
62978;BME280;49073;42.352;23.808;2022-11-24T00:00:52;93708.75;;;3.83;91.72
62978;BME280;49073;42.352;23.808;2022-11-24T00:03:55;93708.19;;;3.89;92.19
62978;BME280;49073;42.352;23.808;2022-11-24T00:06:56;93702.88;;;4.02;92.28
62978;BME280;49073;42.352;23.808;2022-11-24T00:09:57;93702.31;;;4.08;92.52
62978;BME280;49073;42.352;23.808;2022-11-24T00:12:58;93708.63;;;4.20;92.79
62978;BME280;49073;42.352;23.808;2022-11-24T00:19:12;93716.16;;;4.34;93.04
62978;BME280;49073;42.352;23.808;2022-11-24T00:22:12;93714.06;;;4.56;93.57
62978;BME280;49073;42.352;23.808;2022-11-24T00:25:13;93704.13;;;4.49;93.76
62978;BME280;49073;42.352;23.808;2022-11-24T00:28:13;93696.56;;;4.19;94.51
62978;BME280;49073;42.352;23.808;2022-11-24T00:34:16;93711.13;;;4.29;94.55
62978;BME280;49073;42.352;23.808;2022-11-24T00:37:16;93707.16;;;4.35;93.54
62978;BME280;49073;42.352;23.808;2022-11-24T00:40:17;93711.38;;;4.24;92.68
62978;BME280;49073;42.352;23.808;2022-11-24T00:43:18;93709.31;;;4.17;92.93
62978;BME280;49073;42.352;23.808;2022-11-24T00:46:19;93706.13;;;4.11;92.84
62978;BME280;49073;42.352;23.808;2022-11-24T00:49:19;93707.66;;;4.12;91.76
62978;BME280;49073;42.352;23.808;2022-11-24T00:52:20;93714.69;;;4.08;89.40
62978;BME280;49073;42.352;23.808;2022-11-24T00:55:20;93706.59;;;4.01;89.13
62978;BME280;49073;42.352;23.808;2022-11-24T00:58:22;93698.19;;;3.83;89.35
62978;BME280;49073;42.352;23.808;2022-11-24T01:01:25;93707.56;;;3.80;87.71
62978;BME280;49073;42.352;23.808;2022-11-24T01:04:26;93713.84;;;3.63;88.34
62978;BME280;49073;42.352;23.808;2022-11-24T01:07:26;93706.06;;;3.67;87.71
62978;BME280;49073;42.352;23.808;2022-11-24T01:10:27;93714.97;;;3.49;88.01
62978;BME280;49073;42.352;23.808;2022-11-24T01:13:27;93707.63;;;3.55;88.37
62978;BME280;49073;42.352;23.808;2022-11-24T01:16:33;93704.44;;;3.49;88.24
62978;BME280;49073;42.352;23.808;2022-11-24T01:19:34;93708.38;;;3.43;88.76
62978;BME280;49073;42.352;23.808;2022-11-24T01:22:34;93698.28;;;3.45;88.65
62978;BME280;49073;42.352;23.808;2022-11-24T01:25:38;93707.28;;;3.44;87.06
62978;BME280;49073;42.352;23.808;2022-11-24T01:28:38;93713.53;;;3.40;86.90
62978;BME280;49073;42.352;23.808;2022-11-24T01:31:39;93710.47;;;3.25;86.76
62978;BME280;49073;42.352;23.808;2022-11-24T01:34:40;93706.97;;;3.21;87.44
62978;BME280;49073;42.352;23.808;2022-11-24T01:37:40;93706.53;;;3.31;88.73
62978;BME280;49073;42.352;23.808;2022-11-24T01:40:41;93714.44;;;3.31;89.66
62978;BME280;49073;42.352;23.808;2022-11-24T01:43:42;93719.59;;;3.40;90.55
62978;BME280;49073;42.352;23.808;2022-11-24T01:46:46;93715.41;;;3.39;90.51
62978;BME280;49073;42.352;23.808;2022-11-24T01:49:54;93710.34;;;3.46;90.39
62978;BME280;49073;42.352;23.808;2022-11-24T01:52:57;93709.69;;;3.49;91.08
62978;BME280;49073;42.352;23.808;2022-11-24T01:55:58;93710.03;;;3.60;90.45
62978;BME280;49073;42.352;23.808;2022-11-24T01:59:00;93711.97;;;3.51;89.92
62978;BME280;49073;42.352;23.808;2022-11-24T02:02:02;93709.91;;;3.44;88.12
62978;BME280;49073;42.352;23.808;2022-11-24T02:05:11;93715.41;;;3.39;88.53
62978;BME280;49073;42.352;23.808;2022-11-24T02:08:24;93734.41;;;3.20;88.72
62978;BME280;49073;42.352;23.808;2022-11-24T02:11:32;93729.78;;;3.17;88.81
62978;BME280;49073;42.352;23.808;2022-11-24T02:14:34;93723.00;;;3.16;90.07
62978;BME280;49073;42.352;23.808;2022-11-24T02:17:36;93723.88;;;3.20;89.51
62978;BME280;49073;42.352;23.808;2022-11-24T02:20:36;93727.50;;;3.28;87.21
62978;BME280;49073;42.352;23.808;2022-11-24T02:26:48;93732.97;;;3.23;86.56
62978;BME280;49073;42.352;23.808;2022-11-24T02:29:51;93726.28;;;3.13;87.93
62978;BME280;49073;42.352;23.808;2022-11-24T02:32:52;93722.44;;;3.23;88.98
62978;BME280;49073;42.352;23.808;2022-11-24T02:35:52;93731.31;;;3.18;89.77
62978;BME280;49073;42.352;23.808;2022-11-24T02:38:53;93727.50;;;3.28;89.63
62978;BME280;49073;42.352;23.808;2022-11-24T02:41:56;93728.16;;;3.37;89.48
62978;BME280;49073;42.352;23.808;2022-11-24T02:44:59;93728.47;;;3.35;90.05
62978;BME280;49073;42.352;23.808;2022-11-24T02:48:00;93728.16;;;3.37;90.93
62978;BME280;49073;42.352;23.808;2022-11-24T02:51:00;93735.16;;;3.45;91.46
62978;BME280;49073;42.352;23.808;2022-11-24T02:54:01;93732.19;;;3.47;92.02
62978;BME280;49073;42.352;23.808;2022-11-24T02:57:02;93731.31;;;3.68;91.96
62978;BME280;49073;42.352;23.808;2022-11-24T03:00:03;93734.38;;;3.57;91.73
62978;BME280;49073;42.352;23.808;2022-11-24T03:03:04;93736.78;;;3.62;91.91
62978;BME280;49073;42.352;23.808;2022-11-24T03:06:05;93740.06;;;3.72;91.51
62978;BME280;49073;42.352;23.808;2022-11-24T03:09:05;93735.25;;;3.61;90.92
62978;BME280;49073;42.352;23.808;2022-11-24T03:12:06;93731.16;;;3.76;90.51
62978;BME280;49073;42.352;23.808;2022-11-24T03:15:07;93738.75;;;3.66;90.67
62978;BME280;49073;42.352;23.808;2022-11-24T03:18:08;93737.66;;;3.67;91.14
62978;BME280;49073;42.352;23.808;2022-11-24T03:21:09;93736.78;;;3.75;91.58
62978;BME280;49073;42.352;23.808;2022-11-24T03:24:09;93740.72;;;3.81;91.40
62978;BME280;49073;42.352;23.808;2022-11-24T03:27:10;93742.69;;;3.72;92.07
62978;BME280;49073;42.352;23.808;2022-11-24T03:30:11;93733.78;;;3.76;92.40
62978;BME280;49073;42.352;23.808;2022-11-24T03:33:11;93740.50;;;3.74;92.50
62978;BME280;49073;42.352;23.808;2022-11-24T03:36:12;93737.97;;;3.90;91.68
62978;BME280;49073;42.352;23.808;2022-11-24T03:39:12;93738.75;;;3.78;91.53
62978;BME280;49073;42.352;23.808;2022-11-24T03:42:13;93738.97;;;3.73;91.81
62978;BME280;49073;42.352;23.808;2022-11-24T03:45:13;93741.16;;;3.83;91.90
62978;BME280;49073;42.352;23.808;2022-11-24T03:48:15;93732.03;;;3.81;91.59
62978;BME280;49073;42.352;23.808;2022-11-24T03:51:16;93730.50;;;3.79;90.70
62978;BME280;49073;42.352;23.808;2022-11-24T03:54:17;93750.38;;;3.77;90.94
62978;BME280;49073;42.352;23.808;2022-11-24T03:57:17;93754.88;;;3.64;91.55
62978;BME280;49073;42.352;23.808;2022-11-24T04:00:18;93763.09;;;3.87;91.35
62978;BME280;49073;42.352;23.808;2022-11-24T04:03:19;93760.56;;;3.91;92.28
62978;BME280;49073;42.352;23.808;2022-11-24T04:06:19;93763.31;;;3.82;92.90
62978;BME280;49073;42.352;23.808;2022-11-24T04:09:20;93769.16;;;3.88;93.11
62978;BME280;49073;42.352;23.808;2022-11-24T04:12:21;93771.47;;;3.77;92.06
62978;BME280;49073;42.352;23.808;2022-11-24T04:15:41;93763.75;;;3.84;91.71
62978;BME280;49073;42.352;23.808;2022-11-24T04:18:42;93758.06;;;3.82;91.90
62978;BME280;49073;42.352;23.808;2022-11-24T04:21:43;93760.66;;;3.95;92.12
62978;BME280;49073;42.352;23.808;2022-11-24T04:24:44;93766.91;;;4.02;92.99
62978;BME280;49073;42.352;23.808;2022-11-24T04:27:49;93775.44;;;4.12;93.27
62978;BME280;49073;42.352;23.808;2022-11-24T04:30:51;93775.13;;;4.01;93.21
62978;BME280;49073;42.352;23.808;2022-11-24T04:33:51;93764.28;;;4.02;93.25
62978;BME280;49073;42.352;23.808;2022-11-24T04:36:52;93774.28;;;3.97;93.67
62978;BME280;49073;42.352;23.808;2022-11-24T04:39:52;93785.69;;;4.01;93.66
62978;BME280;49073;42.352;23.808;2022-11-24T04:42:55;93791.34;;;3.87;93.70
62978;BME280;49073;42.352;23.808;2022-11-24T04:45:58;93795.63;;;3.79;93.09
62978;BME280;49073;42.352;23.808;2022-11-24T04:48:58;93795.50;;;3.63;93.10
62978;BME280;49073;42.352;23.808;2022-11-24T04:51:59;93791.91;;;3.68;92.83
62978;BME280;49073;42.352;23.808;2022-11-24T04:54:59;93794.28;;;3.85;92.28
62978;BME280;49073;42.352;23.808;2022-11-24T04:58:00;93801.44;;;3.85;91.76
62978;BME280;49073;42.352;23.808;2022-11-24T05:01:00;93787.16;;;3.86;91.46
62978;BME280;49073;42.352;23.808;2022-11-24T05:04:01;93788.59;;;3.71;92.04
62978;BME280;49073;42.352;23.808;2022-11-24T05:07:05;93797.03;;;3.76;92.91
62978;BME280;49073;42.352;23.808;2022-11-24T05:10:06;93802.53;;;3.71;92.85
62978;BME280;49073;42.352;23.808;2022-11-24T05:13:25;93805.72;;;3.64;93.15
62978;BME280;49073;42.352;23.808;2022-11-24T05:16:25;93810.13;;;3.73;92.67
62978;BME280;49073;42.352;23.808;2022-11-24T05:19:26;93810.66;;;3.66;92.13
62978;BME280;49073;42.352;23.808;2022-11-24T05:22:28;93812.09;;;3.63;91.97
62978;BME280;49073;42.352;23.808;2022-11-24T05:25:28;93819.00;;;3.68;91.60
62978;BME280;49073;42.352;23.808;2022-11-24T05:28:29;93816.94;;;3.61;90.40
62978;BME280;49073;42.352;23.808;2022-11-24T05:31:30;93821.53;;;3.64;90.22
62978;BME280;49073;42.352;23.808;2022-11-24T05:34:30;93825.69;;;3.53;91.03
62978;BME280;49073;42.352;23.808;2022-11-24T05:37:32;93827.47;;;3.61;91.13
62978;BME280;49073;42.352;23.808;2022-11-24T05:40:33;93830.97;;;3.66;92.02
62978;BME280;49073;42.352;23.808;2022-11-24T05:43:34;93834.25;;;3.75;92.48
62978;BME280;49073;42.352;23.808;2022-11-24T05:46:34;93834.16;;;3.84;92.77
62978;BME280;49073;42.352;23.808;2022-11-24T05:49:35;93842.16;;;3.87;93.98
62978;BME280;49073;42.352;23.808;2022-11-24T05:52:35;93840.19;;;3.84;95.45
62978;BME280;49073;42.352;23.808;2022-11-24T05:55:38;93843.38;;;3.90;96.48
62978;BME280;49073;42.352;23.808;2022-11-24T05:58:38;93847.19;;;4.05;96.84
62978;BME280;49073;42.352;23.808;2022-11-24T06:01:39;93852.56;;;4.21;96.88
62978;BME280;49073;42.352;23.808;2022-11-24T06:04:39;93852.34;;;4.14;97.84
62978;BME280;49073;42.352;23.808;2022-11-24T06:07:40;93856.41;;;4.24;98.12
62978;BME280;49073;42.352;23.808;2022-11-24T06:10:40;93860.34;;;4.30;98.66
62978;BME280;49073;42.352;23.808;2022-11-24T06:13:42;93870.19;;;4.45;98.24
62978;BME280;49073;42.352;23.808;2022-11-24T06:16:44;93852.22;;;4.35;98.19
62978;BME280;49073;42.352;23.808;2022-11-24T06:19:45;93858.91;;;4.45;98.49
62978;BME280;49073;42.352;23.808;2022-11-24T06:22:49;93861.81;;;4.56;98.59
62978;BME280;49073;42.352;23.808;2022-11-24T06:25:49;93867.28;;;4.63;99.17
62978;BME280;49073;42.352;23.808;2022-11-24T06:28:50;93873.22;;;4.72;98.95
62978;BME280;49073;42.352;23.808;2022-11-24T06:31:50;93862.22;;;4.70;99.61
62978;BME280;49073;42.352;23.808;2022-11-24T06:34:51;93854.41;;;4.74;100.00
62978;BME280;49073;42.352;23.808;2022-11-24T06:37:51;93862.44;;;4.77;100.00
62978;BME280;49073;42.352;23.808;2022-11-24T06:41:03;93862.63;;;4.85;100.00
62978;BME280;49073;42.352;23.808;2022-11-24T06:44:05;93865.94;;;4.82;100.00
62978;BME280;49073;42.352;23.808;2022-11-24T06:47:06;93863.28;;;4.82;100.00
62978;BME280;49073;42.352;23.808;2022-11-24T06:50:07;93867.41;;;4.95;100.00
62978;BME280;49073;42.352;23.808;2022-11-24T06:53:08;93870.03;;;4.95;100.00
62978;BME280;49073;42.352;23.808;2022-11-24T06:56:11;93869.25;;;5.07;100.00
62978;BME280;49073;42.352;23.808;2022-11-24T06:59:18;93877.66;;;4.84;100.00
62978;BME280;49073;42.352;23.808;2022-11-24T07:02:19;93881.81;;;4.57;100.00
62978;BME280;49073;42.352;23.808;2022-11-24T07:05:19;93880.00;;;4.32;100.00
62978;BME280;49073;42.352;23.808;2022-11-24T07:08:20;93882.97;;;4.31;100.00
62978;BME280;49073;42.352;23.808;2022-11-24T07:11:22;93885.75;;;4.63;100.00
62978;BME280;49073;42.352;23.808;2022-11-24T07:14:22;93875.06;;;4.72;99.65
62978;BME280;49073;42.352;23.808;2022-11-24T07:17:23;93867.66;;;4.90;99.19
62978;BME280;49073;42.352;23.808;2022-11-24T07:20:24;93880.19;;;4.93;99.46
62978;BME280;49073;42.352;23.808;2022-11-24T07:23:24;93883.22;;;5.23;99.59
62978;BME280;49073;42.352;23.808;2022-11-24T07:26:25;93883.34;;;5.43;100.00
62978;BME280;49073;42.352;23.808;2022-11-24T07:29:26;93883.25;;;5.56;99.96
62978;BME280;49073;42.352;23.808;2022-11-24T07:32:28;93877.97;;;5.56;99.22
62978;BME280;49073;42.352;23.808;2022-11-24T07:35:29;93887.06;;;5.26;99.04
62978;BME280;49073;42.352;23.808;2022-11-24T07:38:31;93892.78;;;5.28;98.47
62978;BME280;49073;42.352;23.808;2022-11-24T07:41:32;93890.59;;;5.30;97.80
62978;BME280;49073;42.352;23.808;2022-11-24T07:44:33;93895.22;;;5.65;97.61
62978;BME280;49073;42.352;23.808;2022-11-24T07:47:37;93887.78;;;5.87;97.04
62978;BME280;49073;42.352;23.808;2022-11-24T07:50:38;93885.22;;;6.23;97.12
62978;BME280;49073;42.352;23.808;2022-11-24T07:53:38;93887.34;;;6.33;94.46
62978;BME280;49073;42.352;23.808;2022-11-24T07:56:39;93882.13;;;6.37;93.63
62978;BME280;49073;42.352;23.808;2022-11-24T07:59:39;93890.38;;;6.51;93.03
62978;BME280;49073;42.352;23.808;2022-11-24T08:02:40;93890.25;;;6.64;92.90
62978;BME280;49073;42.352;23.808;2022-11-24T08:05:40;93891.50;;;6.70;93.41
62978;BME280;49073;42.352;23.808;2022-11-24T08:08:41;93890.66;;;6.66;94.06
62978;BME280;49073;42.352;23.808;2022-11-24T08:11:41;93887.56;;;6.80;95.44
62978;BME280;49073;42.352;23.808;2022-11-24T08:14:42;93900.50;;;6.85;96.75
62978;BME280;49073;42.352;23.808;2022-11-24T08:17:42;93890.06;;;6.92;97.27
62978;BME280;49073;42.352;23.808;2022-11-24T08:20:43;93900.09;;;7.03;98.35
62978;BME280;49073;42.352;23.808;2022-11-24T08:23:43;93909.25;;;7.28;94.63
62978;BME280;49073;42.352;23.808;2022-11-24T08:26:45;93906.06;;;7.62;90.58
62978;BME280;49073;42.352;23.808;2022-11-24T08:29:45;93905.25;;;7.81;87.61
62978;BME280;49073;42.352;23.808;2022-11-24T08:32:47;93904.13;;;7.82;86.32
62978;BME280;49073;42.352;23.808;2022-11-24T08:35:47;93914.03;;;8.09;84.73
62978;BME280;49073;42.352;23.808;2022-11-24T08:38:53;93919.50;;;8.20;81.78
62978;BME280;49073;42.352;23.808;2022-11-24T08:41:54;93915.09;;;8.31;80.78
62978;BME280;49073;42.352;23.808;2022-11-24T08:44:55;93922.34;;;8.34;80.25
62978;BME280;49073;42.352;23.808;2022-11-24T08:47:56;93922.13;;;8.43;79.82
62978;BME280;49073;42.352;23.808;2022-11-24T08:50:58;93927.56;;;8.50;79.25
62978;BME280;49073;42.352;23.808;2022-11-24T08:54:00;93926.50;;;8.55;78.69
62978;BME280;49073;42.352;23.808;2022-11-24T08:57:01;93920.47;;;8.58;78.26
62978;BME280;49073;42.352;23.808;2022-11-24T09:00:04;93911.47;;;8.66;78.10
62978;BME280;49073;42.352;23.808;2022-11-24T09:03:05;93913.84;;;8.75;78.04
62978;BME280;49073;42.352;23.808;2022-11-24T09:06:07;93920.75;;;8.83;78.00
62978;BME280;49073;42.352;23.808;2022-11-24T09:09:08;93927.41;;;8.97;78.48
62978;BME280;49073;42.352;23.808;2022-11-24T09:12:09;93924.06;;;9.03;78.39
62978;BME280;49073;42.352;23.808;2022-11-24T09:15:10;93917.53;;;8.97;78.11
62978;BME280;49073;42.352;23.808;2022-11-24T10:50:03;93932.16;;;8.84;77.36
62978;BME280;49073;42.352;23.808;2022-11-24T10:56:07;93942.75;;;9.11;75.63
62978;BME280;49073;42.352;23.808;2022-11-24T11:05:39;93947.53;;;9.66;72.49
62978;BME280;49073;42.352;23.808;2022-11-24T11:08:43;93951.66;;;9.60;70.77
62978;BME280;49073;42.352;23.808;2022-11-24T11:11:44;93948.88;;;9.15;71.30
62978;BME280;49073;42.352;23.808;2022-11-24T11:14:47;93948.34;;;9.02;71.21
62978;BME280;49073;42.352;23.808;2022-11-24T11:17:58;93951.44;;;8.77;71.08
62978;BME280;49073;42.352;23.808;2022-11-24T11:21:01;93963.38;;;8.37;71.19
62978;BME280;49073;42.352;23.808;2022-11-24T11:24:11;93943.72;;;8.18;71.14
62978;BME280;49073;42.352;23.808;2022-11-24T11:27:23;93951.28;;;8.16;71.79
62978;BME280;49073;42.352;23.808;2022-11-24T11:30:26;93952.69;;;8.10;70.78
62978;BME280;49073;42.352;23.808;2022-11-24T11:33:31;93943.47;;;8.00;70.40
62978;BME280;49073;42.352;23.808;2022-11-24T11:36:32;93948.94;;;8.11;70.96
62978;BME280;49073;42.352;23.808;2022-11-24T11:39:39;93959.09;;;8.05;70.53
62978;BME280;49073;42.352;23.808;2022-11-24T11:42:45;93963.38;;;8.13;70.36
62978;BME280;49073;42.352;23.808;2022-11-24T11:45:59;93966.16;;;8.21;70.22
62978;BME280;49073;42.352;23.808;2022-11-24T11:49:02;93958.53;;;8.19;69.37
62978;BME280;49073;42.352;23.808;2022-11-24T11:52:17;93956.66;;;7.96;69.35
62978;BME280;49073;42.352;23.808;2022-11-24T12:06:11;93959.91;;;7.86;68.91
62978;BME280;49073;42.352;23.808;2022-11-24T12:15:49;93966.91;;;7.75;69.80
62978;BME280;49073;42.352;23.808;2022-11-24T12:18:55;93981.75;;;7.79;70.01
62978;BME280;49073;42.352;23.808;2022-11-24T12:25:29;93990.56;;;7.64;70.14
62978;BME280;49073;42.352;23.808;2022-11-24T12:35:51;93992.59;;;7.51;70.64
62978;BME280;49073;42.352;23.808;2022-11-24T12:45:54;94003.44;;;7.42;71.32
62978;BME280;49073;42.352;23.808;2022-11-24T12:49:28;94004.25;;;7.26;70.67
62978;BME280;49073;42.352;23.808;2022-11-24T12:56:04;94010.09;;;6.80;71.12
62978;BME280;49073;42.352;23.808;2022-11-24T12:59:37;94006.19;;;6.74;71.72
62978;BME280;49073;42.352;23.808;2022-11-24T13:06:18;94011.75;;;6.69;71.58
62978;BME280;49073;42.352;23.808;2022-11-24T13:09:21;94030.28;;;6.69;72.11
62978;BME280;49073;42.352;23.808;2022-11-24T13:12:22;94026.97;;;6.72;71.95
62978;BME280;49073;42.352;23.808;2022-11-24T13:15:23;94029.00;;;6.79;72.10
62978;BME280;49073;42.352;23.808;2022-11-24T13:18:58;94025.41;;;6.71;72.09
62978;BME280;49073;42.352;23.808;2022-11-24T13:25:22;94029.72;;;6.44;72.18
62978;BME280;49073;42.352;23.808;2022-11-24T13:29:00;94042.25;;;6.47;72.60
62978;BME280;49073;42.352;23.808;2022-11-24T13:35:14;94048.94;;;6.57;71.81
62978;BME280;49073;42.352;23.808;2022-11-24T13:38:40;94054.06;;;6.49;72.21
62978;BME280;49073;42.352;23.808;2022-11-24T13:45:47;94069.75;;;6.42;72.70
62978;BME280;49073;42.352;23.808;2022-11-24T13:51:22;94072.66;;;6.53;72.09
62978;BME280;49073;42.352;23.808;2022-11-24T13:54:24;94065.28;;;6.46;71.90
62978;BME280;49073;42.352;23.808;2022-11-24T13:57:34;94071.03;;;6.32;71.80
62978;BME280;49073;42.352;23.808;2022-11-24T14:07:15;94083.19;;;6.05;72.60
62978;BME280;49073;42.352;23.808;2022-11-24T14:10:18;94081.97;;;6.02;72.67
62978;BME280;49073;42.352;23.808;2022-11-24T14:13:26;94083.28;;;6.08;72.96
62978;BME280;49073;42.352;23.808;2022-11-24T14:16:27;94089.66;;;6.07;72.93
62978;BME280;49073;42.352;23.808;2022-11-24T14:19:28;94094.88;;;6.04;72.36
62978;BME280;49073;42.352;23.808;2022-11-24T14:22:42;94093.16;;;5.83;72.21
62978;BME280;49073;42.352;23.808;2022-11-24T14:25:49;94094.50;;;5.77;72.11
62978;BME280;49073;42.352;23.808;2022-11-24T14:28:51;94098.97;;;5.60;72.29
62978;BME280;49073;42.352;23.808;2022-11-24T14:31:58;94103.03;;;5.58;72.43
62978;BME280;49073;42.352;23.808;2022-11-24T14:34:59;94107.88;;;5.56;73.21
62978;BME280;49073;42.352;23.808;2022-11-24T14:38:04;94122.56;;;5.53;72.79
62978;BME280;49073;42.352;23.808;2022-11-24T14:41:34;94117.59;;;5.51;72.82
62978;BME280;49073;42.352;23.808;2022-11-24T14:44:48;94118.69;;;5.50;72.46
62978;BME280;49073;42.352;23.808;2022-11-24T14:47:50;94112.97;;;5.48;72.39
62978;BME280;49073;42.352;23.808;2022-11-24T14:50:51;94118.25;;;5.48;72.33
62978;BME280;49073;42.352;23.808;2022-11-24T14:53:55;94122.13;;;5.51;71.70
62978;BME280;49073;42.352;23.808;2022-11-24T14:56:59;94133.44;;;5.51;71.59
62978;BME280;49073;42.352;23.808;2022-11-24T15:00:06;94141.06;;;5.53;70.54
62978;BME280;49073;42.352;23.808;2022-11-24T15:03:14;94149.19;;;5.60;70.01
62978;BME280;49073;42.352;23.808;2022-11-24T15:06:17;94153.50;;;5.65;68.99
62978;BME280;49073;42.352;23.808;2022-11-24T15:09:36;94155.03;;;5.66;68.09
62978;BME280;49073;42.352;23.808;2022-11-24T15:12:41;94158.88;;;5.68;67.68
62978;BME280;49073;42.352;23.808;2022-11-24T15:15:48;94160.63;;;5.64;66.43
62978;BME280;49073;42.352;23.808;2022-11-24T15:18:57;94159.22;;;5.67;66.11
62978;BME280;49073;42.352;23.808;2022-11-24T15:21:58;94163.72;;;5.66;65.93
62978;BME280;49073;42.352;23.808;2022-11-24T15:24:58;94150.50;;;5.66;65.24
62978;BME280;49073;42.352;23.808;2022-11-24T15:27:59;94168.34;;;5.70;64.96
62978;BME280;49073;42.352;23.808;2022-11-24T15:31:01;94170.66;;;5.59;65.39
62978;BME280;49073;42.352;23.808;2022-11-24T15:34:06;94181.22;;;5.59;65.63
62978;BME280;49073;42.352;23.808;2022-11-24T15:37:07;94177.38;;;5.56;65.64
62978;BME280;49073;42.352;23.808;2022-11-24T15:40:09;94182.13;;;5.63;66.11
62978;BME280;49073;42.352;23.808;2022-11-24T15:43:36;94191.25;;;5.65;65.85
62978;BME280;49073;42.352;23.808;2022-11-24T15:46:37;94191.47;;;5.60;66.69
62978;BME280;49073;42.352;23.808;2022-11-24T15:49:39;94197.56;;;5.61;66.96
62978;BME280;49073;42.352;23.808;2022-11-24T15:52:40;94199.53;;;5.64;66.26
62978;BME280;49073;42.352;23.808;2022-11-24T15:55:41;94201.06;;;5.65;65.80
62978;BME280;49073;42.352;23.808;2022-11-24T15:58:41;94204.69;;;5.60;65.89
62978;BME280;49073;42.352;23.808;2022-11-24T16:01:42;94203.69;;;5.52;66.36
62978;BME280;49073;42.352;23.808;2022-11-24T16:04:42;94199.44;;;5.48;65.85
62978;BME280;49073;42.352;23.808;2022-11-24T16:07:43;94197.34;;;5.41;66.36
62978;BME280;49073;42.352;23.808;2022-11-24T16:10:43;94202.84;;;5.36;66.96
62978;BME280;49073;42.352;23.808;2022-11-24T16:13:44;94198.56;;;5.31;67.33
62978;BME280;49073;42.352;23.808;2022-11-24T16:16:44;94191.63;;;5.27;66.67
62978;BME280;49073;42.352;23.808;2022-11-24T16:19:45;94201.09;;;5.28;67.33
62978;BME280;49073;42.352;23.808;2022-11-24T16:22:46;94202.31;;;5.30;67.04
62978;BME280;49073;42.352;23.808;2022-11-24T16:25:47;94204.28;;;5.33;67.08
62978;BME280;49073;42.352;23.808;2022-11-24T16:28:47;94203.19;;;5.34;67.27
62978;BME280;49073;42.352;23.808;2022-11-24T16:31:50;94210.53;;;5.41;66.93
62978;BME280;49073;42.352;23.808;2022-11-24T16:34:50;94205.91;;;5.38;66.68
62978;BME280;49073;42.352;23.808;2022-11-24T16:37:51;94212.09;;;5.42;66.91
62978;BME280;49073;42.352;23.808;2022-11-24T16:40:53;94203.41;;;5.42;66.69
62978;BME280;49073;42.352;23.808;2022-11-24T16:43:55;94203.19;;;5.34;66.81
62978;BME280;49073;42.352;23.808;2022-11-24T16:46:56;94213.94;;;5.29;67.01
62978;BME280;49073;42.352;23.808;2022-11-24T16:49:56;94219.56;;;5.28;66.99
62978;BME280;49073;42.352;23.808;2022-11-24T16:52:57;94217.69;;;5.28;67.08
62978;BME280;49073;42.352;23.808;2022-11-24T16:55:57;94229.69;;;5.26;67.41
62978;BME280;49073;42.352;23.808;2022-11-24T16:58:58;94231.91;;;5.23;67.69
62978;BME280;49073;42.352;23.808;2022-11-24T17:01:59;94232.44;;;5.29;67.43
62978;BME280;49073;42.352;23.808;2022-11-24T17:04:59;94239.72;;;5.32;67.70
62978;BME280;49073;42.352;23.808;2022-11-24T17:08:00;94237.84;;;5.45;67.38
62978;BME280;49073;42.352;23.808;2022-11-24T17:11:05;94240.47;;;5.45;66.37
62978;BME280;49073;42.352;23.808;2022-11-24T17:14:08;94241.81;;;5.51;66.40
62978;BME280;49073;42.352;23.808;2022-11-24T17:17:08;94235.09;;;5.54;65.96
62978;BME280;49073;42.352;23.808;2022-11-24T17:20:09;94247.78;;;5.61;66.21
62978;BME280;49073;42.352;23.808;2022-11-24T17:23:10;94250.84;;;5.63;65.90
62978;BME280;49073;42.352;23.808;2022-11-24T17:26:12;94244.34;;;5.60;65.78
62978;BME280;49073;42.352;23.808;2022-11-24T17:29:12;94246.66;;;5.62;65.83
62978;BME280;49073;42.352;23.808;2022-11-24T17:32:13;94233.66;;;5.57;65.90
62978;BME280;49073;42.352;23.808;2022-11-24T17:35:13;94244.47;;;5.64;66.08
62978;BME280;49073;42.352;23.808;2022-11-24T17:38:14;94246.09;;;5.68;65.70
62978;BME280;49073;42.352;23.808;2022-11-24T17:41:16;94247.53;;;5.66;65.69
62978;BME280;49073;42.352;23.808;2022-11-24T17:44:16;94240.06;;;5.68;65.94
62978;BME280;49073;42.352;23.808;2022-11-24T17:47:17;94248.84;;;5.72;66.22
62978;BME280;49073;42.352;23.808;2022-11-24T17:50:17;94242.56;;;5.64;66.02
62978;BME280;49073;42.352;23.808;2022-11-24T17:53:18;94244.91;;;5.66;65.50
62978;BME280;49073;42.352;23.808;2022-11-24T17:56:20;94246.44;;;5.67;65.52
62978;BME280;49073;42.352;23.808;2022-11-24T17:59:22;94246.88;;;5.69;65.96
62978;BME280;49073;42.352;23.808;2022-11-24T18:02:23;94248.31;;;5.66;66.34
62978;BME280;49073;42.352;23.808;2022-11-24T18:05:23;94244.13;;;5.65;65.63
62978;BME280;49073;42.352;23.808;2022-11-24T18:08:24;94248.75;;;5.68;65.86
62978;BME280;49073;42.352;23.808;2022-11-24T18:11:27;94251.81;;;5.71;65.98
62978;BME280;49073;42.352;23.808;2022-11-24T18:14:28;94252.25;;;5.73;66.19
62978;BME280;49073;42.352;23.808;2022-11-24T18:17:28;94256.00;;;5.72;66.16
62978;BME280;49073;42.352;23.808;2022-11-24T18:20:29;94259.09;;;5.74;66.06
62978;BME280;49073;42.352;23.808;2022-11-24T18:23:32;94252.03;;;5.78;65.88
62978;BME280;49073;42.352;23.808;2022-11-24T18:26:35;94261.41;;;5.75;66.21
62978;BME280;49073;42.352;23.808;2022-11-24T18:29:35;94260.75;;;5.78;66.20
62978;BME280;49073;42.352;23.808;2022-11-24T18:32:36;94264.16;;;5.79;66.26
62978;BME280;49073;42.352;23.808;2022-11-24T18:35:36;94266.78;;;5.79;65.82
62978;BME280;49073;42.352;23.808;2022-11-24T18:38:38;94264.81;;;5.76;66.03
62978;BME280;49073;42.352;23.808;2022-11-24T18:41:39;94262.06;;;5.72;66.46
62978;BME280;49073;42.352;23.808;2022-11-24T18:44:39;94267.47;;;5.76;66.22
62978;BME280;49073;42.352;23.808;2022-11-24T18:47:41;94266.56;;;5.72;66.26
62978;BME280;49073;42.352;23.808;2022-11-24T18:50:43;94276.06;;;5.73;66.24
62978;BME280;49073;42.352;23.808;2022-11-24T18:53:44;94272.66;;;5.72;66.21
62978;BME280;49073;42.352;23.808;2022-11-24T18:56:45;94281.13;;;5.78;66.11
62978;BME280;49073;42.352;23.808;2022-11-24T18:59:46;94269.78;;;5.77;65.92